aviador You're here:

KNBC Decoded Metar

BEAUFORT in SC, USA
Report Time2018-07-20 18:21:00
UTC Time2018-07-20 18:37:28
Flight Rules mvfr MVFR
Wind350° at 06 kt
W.Decomp.*RWY 36: 6.0 kt HW 0.5 kt LCW
RWY 32: 4.9 kt HW 3.4 kt RCW
RWY 05: 3.4 kt HW 4.9 kt LCW
W.Rank350° ranks 23
Current wind is below 350° avg. (6.2)
Visibility9999 m
Phenomena:N/A
Clouds:Few 008 Hf
Broken 015 Hf
Broken 025 Hf
Expected CloudBase > 800 ft AGL from Temp-Dew spread
Ceiling1,500 ft
Temp27°C (ISA +12)
Dew Point25°C (89% RH)
Heat Index30.6°C
QNH1013 hPa
Density Alt1,844 ft
Elevation37 ft
Report Wrong Elevation
Raw Report
SPECI KNBC 201821Z 35006KT 10SM FEW008 BKN015 BKN025 27/25 A2990 RMK
AO2 T02670250=

Extra information for KNBC:More info

Metar Taf Metar & Taf Last 4 Metars F.Rules Stats Wind Profile Meteogram Temp Stats Airport Information Weather charts Add Link Nearby VenuesMetar ALERT Operation Metar Decoded Social comments

AIRNAV info for KNBC